createdAt,value
2023-05-17T00:02:15.591Z,91.70
2023-05-17T00:07:17.464Z,91.62
2023-05-17T00:12:19.245Z,91.47
2023-05-17T00:17:21.079Z,91.39
2023-05-17T00:22:22.741Z,91.71
2023-05-17T00:27:24.399Z,91.75
2023-05-17T00:32:26.201Z,91.88
2023-05-17T00:37:27.924Z,91.77
2023-05-17T00:42:29.568Z,91.62
2023-05-17T00:47:31.332Z,91.70
2023-05-17T00:52:33.273Z,91.66
2023-05-17T00:57:35.836Z,91.97
2023-05-17T01:02:37.843Z,92.07
2023-05-17T01:07:40.179Z,91.95
2023-05-17T01:13:01.298Z,91.94
2023-05-17T01:18:35.234Z,92.16
2023-05-17T01:23:59.286Z,91.74
2023-05-17T01:29:02.635Z,91.94
2023-05-17T01:34:08.832Z,91.84
2023-05-17T01:39:10.531Z,91.87
2023-05-17T01:44:18.331Z,91.69
2023-05-17T01:49:30.342Z,91.83
2023-05-17T01:54:39.273Z,92.20
2023-05-17T01:59:44.167Z,92.15
2023-05-17T02:04:46.177Z,91.74
2023-05-17T02:09:47.949Z,91.60
2023-05-17T02:14:49.670Z,91.27
2023-05-17T02:19:52.119Z,91.25
2023-05-17T02:24:53.790Z,91.36
2023-05-17T02:29:55.569Z,91.44
2023-05-17T02:34:57.288Z,91.42
2023-05-17T02:39:59.072Z,91.82
2023-05-17T02:45:01.208Z,91.64
2023-05-17T02:50:05.569Z,91.54
2023-05-17T02:55:07.699Z,91.55
2023-05-17T03:00:09.830Z,91.58
2023-05-17T03:05:15.731Z,91.54
2023-05-17T03:10:22.730Z,91.36
2023-05-17T03:15:26.719Z,91.18
2023-05-17T03:20:28.695Z,91.32
2023-05-17T03:25:31.238Z,91.33
2023-05-17T03:30:33.137Z,91.07
2023-05-17T03:35:35.289Z,90.82
2023-05-17T03:40:37.202Z,90.93
2023-05-17T03:45:38.903Z,91.22
2023-05-17T03:50:41.439Z,91.34
2023-05-17T03:55:43.786Z,91.29
2023-05-17T04:00:45.493Z,91.61
2023-05-17T04:05:48.674Z,91.50
2023-05-17T04:10:50.426Z,91.37
2023-05-17T04:15:52.124Z,91.34
2023-05-17T04:20:55.594Z,91.07
2023-05-17T04:25:58.137Z,91.12
2023-05-17T04:31:00.196Z,91.07
2023-05-17T04:36:02.655Z,91.08
2023-05-17T04:41:06.644Z,90.95
2023-05-17T04:46:10.340Z,90.91
2023-05-17T04:51:12.983Z,90.97
2023-05-17T04:56:15.094Z,91.03
2023-05-17T05:01:17.396Z,91.06
2023-05-17T05:06:19.898Z,90.88
2023-05-17T05:11:21.695Z,91.11
2023-05-17T05:16:24.867Z,91.01
2023-05-17T05:21:26.820Z,91.28
2023-05-17T05:26:29.209Z,91.09
2023-05-17T05:31:31.861Z,91.07
2023-05-17T05:36:35.111Z,90.95
2023-05-17T05:41:36.890Z,90.83
2023-05-17T05:46:38.826Z,90.83
2023-05-17T05:51:41.048Z,90.59
2023-05-17T05:56:43.072Z,90.35
2023-05-17T06:01:46.332Z,90.35
2023-05-17T06:06:48.523Z,90.46
2023-05-17T06:11:53.624Z,90.37
2023-05-17T06:16:55.396Z,90.09
2023-05-17T06:21:57.114Z,90.19
2023-05-17T06:26:58.952Z,90.14
2023-05-17T06:32:00.816Z,90.61
2023-05-17T06:37:03.570Z,90.27
2023-05-17T06:42:05.441Z,90.54
2023-05-17T06:47:09.144Z,90.41
2023-05-17T06:52:10.832Z,90.35
2023-05-17T06:57:12.666Z,90.36
2023-05-17T07:02:14.360Z,90.39
2023-05-17T07:07:16.224Z,90.82
2023-05-17T07:12:18.135Z,90.74
2023-05-17T07:17:19.831Z,90.39
2023-05-17T07:22:21.560Z,90.52
2023-05-17T07:27:23.324Z,90.47
2023-05-17T07:32:25.061Z,90.43
2023-05-17T07:37:26.978Z,90.92
2023-05-17T07:42:28.653Z,90.03
2023-05-17T07:47:31.002Z,89.94
2023-05-17T07:52:32.892Z,89.86
2023-05-17T07:57:34.725Z,89.75
2023-05-17T08:02:36.520Z,89.37
2023-05-17T08:07:38.307Z,89.46
2023-05-17T08:12:40.042Z,89.93
2023-05-17T08:17:41.904Z,89.55
2023-05-17T08:22:43.708Z,89.86
2023-05-17T08:27:45.515Z,90.42
2023-05-17T08:32:48.159Z,90.42
2023-05-17T08:37:50.203Z,90.34
2023-05-17T08:42:52.671Z,90.28
2023-05-17T08:47:55.155Z,90.20
2023-05-17T08:52:58.547Z,90.31
2023-05-17T08:58:01.235Z,90.21
2023-05-17T09:03:02.972Z,90.39
2023-05-17T09:08:05.855Z,89.90
2023-05-17T09:13:07.959Z,90.00
2023-05-17T09:18:13.992Z,89.84
2023-05-17T09:23:21.060Z,89.52
2023-05-17T09:28:23.543Z,88.89
2023-05-17T09:33:25.216Z,89.00
2023-05-17T09:38:30.016Z,89.45
2023-05-17T09:43:31.938Z,89.29
2023-05-17T09:48:34.116Z,89.30
2023-05-17T09:53:40.777Z,89.35
2023-05-17T09:58:42.627Z,89.29
2023-05-17T10:03:44.576Z,88.84
2023-05-17T10:08:51.781Z,88.88
2023-05-17T10:14:05.248Z,88.81
2023-05-17T10:19:07.815Z,88.77
2023-05-17T10:24:11.297Z,88.49
2023-05-17T10:29:13.570Z,88.57
2023-05-17T10:34:17.299Z,88.09
2023-05-17T10:39:19.296Z,88.12
2023-05-17T10:44:22.187Z,87.91
2023-05-17T10:49:30.218Z,87.56
2023-05-17T10:54:36.905Z,87.16
2023-05-17T10:59:58.003Z,87.10
2023-05-17T11:05:00.684Z,87.28
2023-05-17T11:10:11.714Z,87.02
2023-05-17T11:15:17.483Z,87.52
2023-05-17T11:20:25.900Z,87.44
2023-05-17T11:25:30.563Z,87.79
2023-05-17T11:30:33.130Z,87.74
2023-05-17T11:35:38.176Z,88.09
2023-05-17T11:40:40.900Z,88.10
2023-05-17T11:45:53.912Z,88.09
2023-05-17T11:50:56.845Z,87.67
2023-05-17T11:56:05.672Z,87.65
2023-05-17T12:01:09.074Z,87.39
2023-05-17T12:06:16.180Z,87.22
2023-05-17T12:11:18.854Z,87.42
2023-05-17T12:16:24.973Z,87.37
2023-05-17T12:21:26.816Z,86.72
2023-05-17T12:26:28.693Z,87.09
2023-05-17T12:31:36.622Z,87.70
2023-05-17T12:36:38.803Z,88.15
2023-05-17T12:41:42.040Z,87.65
2023-05-17T12:46:45.040Z,87.98
2023-05-17T12:51:47.731Z,88.02
2023-05-17T12:56:49.715Z,88.35
2023-05-17T13:01:56.925Z,88.54
2023-05-17T13:07:00.944Z,88.48
2023-05-17T13:12:07.116Z,88.77
2023-05-17T13:17:22.319Z,88.66
2023-05-17T13:22:25.198Z,88.51
2023-05-17T13:27:28.152Z,88.53
2023-05-17T13:32:29.896Z,88.55
2023-05-17T13:37:32.003Z,88.66
2023-05-17T13:42:33.936Z,88.72
2023-05-17T13:47:36.155Z,88.95
2023-05-17T13:52:37.901Z,89.10
2023-05-17T13:57:39.649Z,89.57
2023-05-17T14:02:41.745Z,89.21
2023-05-17T14:07:44.419Z,89.46
2023-05-17T14:12:47.025Z,89.29
2023-05-17T14:17:49.872Z,89.54
2023-05-17T14:22:51.850Z,89.41
2023-05-17T14:27:53.905Z,89.44
2023-05-17T14:32:55.795Z,89.73
2023-05-17T14:37:57.639Z,89.80
2023-05-17T14:42:59.429Z,89.83
2023-05-17T14:48:01.227Z,90.27
2023-05-17T14:53:03.123Z,90.05
2023-05-17T14:58:04.968Z,90.31
2023-05-17T15:03:06.729Z,90.03
2023-05-17T15:08:08.820Z,89.91
2023-05-17T15:13:10.583Z,89.68
2023-05-17T15:18:13.792Z,89.98
2023-05-17T15:23:16.150Z,89.71
2023-05-17T15:28:19.944Z,89.70
2023-05-17T15:33:22.185Z,89.97
2023-05-17T15:38:24.067Z,89.32
2023-05-17T15:43:25.774Z,89.36
2023-05-17T15:48:30.350Z,89.72
2023-05-17T15:53:33.318Z,89.95
2023-05-17T15:58:35.572Z,89.67
2023-05-17T16:03:37.494Z,89.79
2023-05-17T16:08:39.232Z,89.84
2023-05-17T16:13:41.151Z,89.83
2023-05-17T16:18:42.939Z,89.80
2023-05-17T16:23:44.844Z,90.04
2023-05-17T16:28:46.689Z,89.58
2023-05-17T16:33:48.440Z,89.90
2023-05-17T16:38:51.664Z,89.57
2023-05-17T16:43:53.375Z,89.63
2023-05-17T16:48:55.564Z,89.59
2023-05-17T16:53:57.356Z,89.30
2023-05-17T16:58:59.134Z,89.51
2023-05-17T17:04:01.825Z,89.28
2023-05-17T17:09:08.009Z,89.03
2023-05-17T17:14:11.173Z,89.43
2023-05-17T17:19:12.916Z,89.53
2023-05-17T17:24:14.850Z,89.21
2023-05-17T17:29:16.794Z,89.13
2023-05-17T17:34:18.454Z,88.87
2023-05-17T17:39:20.089Z,89.09
2023-05-17T17:44:21.987Z,89.01
2023-05-17T17:49:23.635Z,88.88
2023-05-17T17:54:25.553Z,88.92
2023-05-17T17:59:27.214Z,89.09
2023-05-17T18:04:28.954Z,88.95
2023-05-17T18:09:30.930Z,88.88
2023-05-17T18:14:33.823Z,89.20
2023-05-17T18:19:35.769Z,88.94
2023-05-17T18:24:37.480Z,89.08
2023-05-17T18:29:42.739Z,89.06
2023-05-17T18:34:44.525Z,89.13
2023-05-17T18:39:46.234Z,89.00
2023-05-17T18:44:48.395Z,89.32
2023-05-17T18:49:51.914Z,89.32
2023-05-17T18:54:54.639Z,89.07
2023-05-17T18:59:56.334Z,89.26
2023-05-17T19:04:58.015Z,89.31
2023-05-17T19:09:59.854Z,89.18
2023-05-17T19:15:03.086Z,89.06
2023-05-17T19:20:05.374Z,89.06
2023-05-17T19:25:07.776Z,88.94
2023-05-17T19:30:09.970Z,89.09
2023-05-17T19:35:11.686Z,89.23
2023-05-17T19:40:15.225Z,89.18
2023-05-17T19:45:18.042Z,88.94
2023-05-17T19:50:20.121Z,89.03
2023-05-17T19:55:22.989Z,88.92
2023-05-17T20:00:25.374Z,88.74
2023-05-17T20:05:27.281Z,88.66
2023-05-17T20:10:32.676Z,88.93
2023-05-17T20:15:34.732Z,89.08
2023-05-17T20:20:36.652Z,89.23
2023-05-17T20:25:39.831Z,89.17
2023-05-17T20:30:44.311Z,89.08
2023-05-17T20:35:46.277Z,89.20
2023-05-17T20:40:48.161Z,88.97
2023-05-17T20:45:53.805Z,88.68
2023-05-17T20:50:55.588Z,88.67
2023-05-17T20:55:58.149Z,89.37
2023-05-17T21:01:01.281Z,89.12
2023-05-17T21:06:05.192Z,88.99
2023-05-17T21:11:08.738Z,88.55
2023-05-17T21:16:10.617Z,88.68
2023-05-17T21:21:12.836Z,88.93
2023-05-17T21:26:14.654Z,88.54
2023-05-17T21:31:16.662Z,88.57
2023-05-17T21:36:18.521Z,88.45
2023-05-17T21:41:21.581Z,88.52
2023-05-17T21:46:29.445Z,88.54
2023-05-17T21:51:32.378Z,88.36
2023-05-17T21:56:34.091Z,88.53
2023-05-17T22:01:35.835Z,88.53
2023-05-17T22:06:37.783Z,88.31
2023-05-17T22:11:40.644Z,88.23
2023-05-17T22:16:42.424Z,88.06
2023-05-17T22:21:44.104Z,88.07
2023-05-17T22:26:45.960Z,88.38
2023-05-17T22:31:50.172Z,88.55
2023-05-17T22:36:51.902Z,88.27
2023-05-17T22:41:53.563Z,88.00
2023-05-17T22:46:57.725Z,88.00
2023-05-17T22:52:07.533Z,87.76
2023-05-17T22:57:09.676Z,87.76
2023-05-17T23:02:14.109Z,87.61
2023-05-17T23:07:16.389Z,87.61
2023-05-17T23:12:27.451Z,87.90
2023-05-17T23:17:32.596Z,87.77
2023-05-17T23:22:34.733Z,87.97
2023-05-17T23:27:36.568Z,87.90
2023-05-17T23:32:38.373Z,87.92
2023-05-17T23:37:41.414Z,87.72
2023-05-17T23:43:04.422Z,87.70
2023-05-17T23:48:26.230Z,87.84
2023-05-17T23:53:28.209Z,87.16
2023-05-17T23:58:29.953Z,87.11
